sensor_id;sensor_type;location;lat;lon;timestamp;pressure;altitude;pressure_sealevel;temperature;humidity
9893;BME280;4985;49.092;8.542;2023-10-31T00:00:29;97761.59;;;18.78;52.98
9893;BME280;4985;49.092;8.542;2023-10-31T00:02:54;97774.13;;;18.77;53.08
9893;BME280;4985;49.092;8.542;2023-10-31T00:05:19;97769.59;;;18.78;53.17
9893;BME280;4985;49.092;8.542;2023-10-31T00:07:44;97768.00;;;18.77;53.42
9893;BME280;4985;49.092;8.542;2023-10-31T00:10:10;97767.19;;;18.76;53.22
9893;BME280;4985;49.092;8.542;2023-10-31T00:12:35;97770.13;;;18.75;53.44
9893;BME280;4985;49.092;8.542;2023-10-31T00:15:01;97778.09;;;18.75;53.25
9893;BME280;4985;49.092;8.542;2023-10-31T00:17:26;97781.84;;;18.74;53.11
9893;BME280;4985;49.092;8.542;2023-10-31T00:19:52;97787.16;;;18.74;52.68
9893;BME280;4985;49.092;8.542;2023-10-31T00:22:17;97787.97;;;18.74;52.97
9893;BME280;4985;49.092;8.542;2023-10-31T00:24:43;97789.84;;;18.74;52.66
9893;BME280;4985;49.092;8.542;2023-10-31T00:27:08;97787.97;;;18.74;52.71
9893;BME280;4985;49.092;8.542;2023-10-31T00:29:34;97791.44;;;18.75;52.78
9893;BME280;4985;49.092;8.542;2023-10-31T00:31:59;97800.50;;;18.74;52.60
9893;BME280;4985;49.092;8.542;2023-10-31T00:34:24;97805.81;;;18.74;52.50
9893;BME280;4985;49.092;8.542;2023-10-31T00:36:50;97807.44;;;18.75;52.36
9893;BME280;4985;49.092;8.542;2023-10-31T00:39:15;97802.91;;;18.75;52.85
9893;BME280;4985;49.092;8.542;2023-10-31T00:41:43;97791.44;;;18.75;52.71
9893;BME280;4985;49.092;8.542;2023-10-31T00:44:10;97799.44;;;18.75;52.41
9893;BME280;4985;49.092;8.542;2023-10-31T00:46:35;97796.78;;;18.75;52.73
9893;BME280;4985;49.092;8.542;2023-10-31T00:49:01;97800.50;;;18.74;52.46
9893;BME280;4985;49.092;8.542;2023-10-31T00:51:26;97805.81;;;18.74;52.34
9893;BME280;4985;49.092;8.542;2023-10-31T00:53:52;97798.88;;;18.73;52.13
9893;BME280;4985;49.092;8.542;2023-10-31T00:56:17;97814.06;;;18.72;52.04
9893;BME280;4985;49.092;8.542;2023-10-31T00:58:42;97813.28;;;18.72;51.88
9893;BME280;4985;49.092;8.542;2023-10-31T01:01:08;97813.28;;;18.72;51.98
9893;BME280;4985;49.092;8.542;2023-10-31T01:03:33;97815.13;;;18.71;52.20
9893;BME280;4985;49.092;8.542;2023-10-31T01:05:58;97821.81;;;18.74;51.87
9893;BME280;4985;49.092;8.542;2023-10-31T01:08:24;97822.63;;;18.74;52.22
9893;BME280;4985;49.092;8.542;2023-10-31T01:10:49;97828.75;;;18.75;51.93
9893;BME280;4985;49.092;8.542;2023-10-31T01:13:14;97823.41;;;18.75;51.97
9893;BME280;4985;49.092;8.542;2023-10-31T01:15:40;97834.88;;;18.75;51.92
9893;BME280;4985;49.092;8.542;2023-10-31T01:18:05;97831.16;;;18.76;51.84
9893;BME280;4985;49.092;8.542;2023-10-31T01:20:31;97833.56;;;18.78;51.58
9893;BME280;4985;49.092;8.542;2023-10-31T01:22:56;97835.44;;;18.77;51.53
9893;BME280;4985;49.092;8.542;2023-10-31T01:25:22;97831.97;;;18.77;51.61
9893;BME280;4985;49.092;8.542;2023-10-31T01:27:47;97833.56;;;18.78;51.49
9893;BME280;4985;49.092;8.542;2023-10-31T01:30:13;97824.53;;;18.79;51.33
9893;BME280;4985;49.092;8.542;2023-10-31T01:32:38;97829.84;;;18.79;51.44
9893;BME280;4985;49.092;8.542;2023-10-31T01:35:04;97826.13;;;18.80;51.47
9893;BME280;4985;49.092;8.542;2023-10-31T01:37:30;97818.13;;;18.80;51.16
9893;BME280;4985;49.092;8.542;2023-10-31T01:39:55;97825.09;;;18.81;51.53
9893;BME280;4985;49.092;8.542;2023-10-31T01:42:20;97823.47;;;18.80;51.43
9893;BME280;4985;49.092;8.542;2023-10-31T01:44:46;97835.75;;;18.81;51.26
9893;BME280;4985;49.092;8.542;2023-10-31T01:47:11;97851.75;;;18.81;51.13
9893;BME280;4985;49.092;8.542;2023-10-31T01:49:38;97846.44;;;18.81;51.05
9893;BME280;4985;49.092;8.542;2023-10-31T01:52:04;97859.75;;;18.81;51.19
9893;BME280;4985;49.092;8.542;2023-10-31T01:54:29;97845.38;;;18.82;51.16
9893;BME280;4985;49.092;8.542;2023-10-31T01:56:58;97857.88;;;18.81;51.46
9893;BME280;4985;49.092;8.542;2023-10-31T01:59:26;97863.22;;;18.81;51.12
9893;BME280;4985;49.092;8.542;2023-10-31T02:01:52;97871.22;;;18.81;50.95
9893;BME280;4985;49.092;8.542;2023-10-31T02:04:17;97865.09;;;18.81;50.72
9893;BME280;4985;49.092;8.542;2023-10-31T02:06:42;97862.41;;;18.81;50.91
9893;BME280;4985;49.092;8.542;2023-10-31T02:09:08;97864.03;;;18.82;50.72
9893;BME280;4985;49.092;8.542;2023-10-31T02:11:33;97859.75;;;18.81;50.54
9893;BME280;4985;49.092;8.542;2023-10-31T02:14:00;97866.13;;;18.80;50.64
9893;BME280;4985;49.092;8.542;2023-10-31T02:16:26;97874.13;;;18.80;50.38
9893;BME280;4985;49.092;8.542;2023-10-31T02:18:51;97888.28;;;18.80;50.31
9893;BME280;4985;49.092;8.542;2023-10-31T02:21:19;97890.09;;;18.80;50.36
9893;BME280;4985;49.092;8.542;2023-10-31T02:24:01;97887.22;;;18.81;50.41
9893;BME280;4985;49.092;8.542;2023-10-31T02:26:31;97895.44;;;18.80;50.64
9893;BME280;4985;49.092;8.542;2023-10-31T02:28:57;97902.41;;;18.81;50.16
9893;BME280;4985;49.092;8.542;2023-10-31T02:31:22;97896.28;;;18.80;50.10
9893;BME280;4985;49.092;8.542;2023-10-31T02:33:48;97895.44;;;18.80;50.30
9893;BME280;4985;49.092;8.542;2023-10-31T02:36:13;97890.94;;;18.80;50.40
9893;BME280;4985;49.092;8.542;2023-10-31T02:38:39;97884.78;;;18.80;50.05
9893;BME280;4985;49.092;8.542;2023-10-31T02:41:05;97887.44;;;18.80;50.26
9893;BME280;4985;49.092;8.542;2023-10-31T02:43:30;97885.03;;;18.78;50.22
9893;BME280;4985;49.092;8.542;2023-10-31T02:45:56;97883.97;;;18.79;50.11
9893;BME280;4985;49.092;8.542;2023-10-31T02:48:21;97892.78;;;18.80;50.10
9893;BME280;4985;49.092;8.542;2023-10-31T02:50:47;97887.69;;;18.78;50.09
9893;BME280;4985;49.092;8.542;2023-10-31T02:53:12;97886.88;;;18.78;49.95
9893;BME280;4985;49.092;8.542;2023-10-31T02:55:37;97893.81;;;18.79;49.77
9893;BME280;4985;49.092;8.542;2023-10-31T02:58:02;97892.22;;;18.78;49.63
9893;BME280;4985;49.092;8.542;2023-10-31T03:00:28;97898.59;;;18.77;49.69
9893;BME280;4985;49.092;8.542;2023-10-31T03:02:53;97898.59;;;18.77;49.73
9893;BME280;4985;49.092;8.542;2023-10-31T03:05:19;97900.47;;;18.76;49.63
9893;BME280;4985;49.092;8.542;2023-10-31T03:07:44;97901.53;;;18.75;49.18
9893;BME280;4985;49.092;8.542;2023-10-31T03:10:10;97909.53;;;18.75;49.40
9893;BME280;4985;49.092;8.542;2023-10-31T03:12:36;97908.72;;;18.75;49.46
9893;BME280;4985;49.092;8.542;2023-10-31T03:15:02;97899.66;;;18.76;49.05
9893;BME280;4985;49.092;8.542;2023-10-31T03:17:29;97912.44;;;18.74;49.05
9893;BME280;4985;49.092;8.542;2023-10-31T03:19:54;97897.50;;;18.73;48.95
9893;BME280;4985;49.092;8.542;2023-10-31T03:22:19;97904.44;;;18.74;49.08
9893;BME280;4985;49.092;8.542;2023-10-31T03:24:45;97906.31;;;18.73;49.13
9893;BME280;4985;49.092;8.542;2023-10-31T03:27:11;97899.38;;;18.72;48.89
9893;BME280;4985;49.092;8.542;2023-10-31T03:29:36;97891.13;;;18.74;49.10
9893;BME280;4985;49.092;8.542;2023-10-31T03:32:01;97892.97;;;18.73;48.96
9893;BME280;4985;49.092;8.542;2023-10-31T03:34:27;97902.84;;;18.73;48.84
9893;BME280;4985;49.092;8.542;2023-10-31T03:36:52;97909.22;;;18.72;48.56
9893;BME280;4985;49.092;8.542;2023-10-31T03:39:18;97907.63;;;18.71;48.50
9893;BME280;4985;49.092;8.542;2023-10-31T03:41:43;97904.16;;;18.70;48.37
9893;BME280;4985;49.092;8.542;2023-10-31T03:44:09;97921.19;;;18.69;48.34
9893;BME280;4985;49.092;8.542;2023-10-31T03:46:35;97922.00;;;18.70;48.58
9893;BME280;4985;49.092;8.542;2023-10-31T03:49:00;97928.34;;;18.69;48.60
9893;BME280;4985;49.092;8.542;2023-10-31T03:51:25;97931.03;;;18.69;48.18
9893;BME280;4985;49.092;8.542;2023-10-31T03:53:51;97933.69;;;18.69;48.48
9893;BME280;4985;49.092;8.542;2023-10-31T03:56:16;97940.88;;;18.68;48.39
9893;BME280;4985;49.092;8.542;2023-10-31T03:58:42;97941.69;;;18.69;48.21
9893;BME280;4985;49.092;8.542;2023-10-31T04:01:08;97936.34;;;18.69;48.33
9893;BME280;4985;49.092;8.542;2023-10-31T04:03:33;97941.69;;;18.69;48.21
9893;BME280;4985;49.092;8.542;2023-10-31T04:05:58;97951.53;;;18.68;48.35
9893;BME280;4985;49.092;8.542;2023-10-31T04:08:24;97957.69;;;18.69;48.50
9893;BME280;4985;49.092;8.542;2023-10-31T04:10:49;97943.53;;;18.68;48.08
9893;BME280;4985;49.092;8.542;2023-10-31T04:13:14;97941.69;;;18.69;48.41
9893;BME280;4985;49.092;8.542;2023-10-31T04:15:40;97940.06;;;18.68;48.29
9893;BME280;4985;49.092;8.542;2023-10-31T04:18:05;97952.34;;;18.69;48.38
9893;BME280;4985;49.092;8.542;2023-10-31T04:20:31;97949.69;;;18.69;48.09
9893;BME280;4985;49.092;8.542;2023-10-31T04:22:56;97946.22;;;18.68;47.95
9893;BME280;4985;49.092;8.542;2023-10-31T04:25:21;97961.41;;;18.68;47.95
9893;BME280;4985;49.092;8.542;2023-10-31T04:27:47;97960.59;;;18.67;47.72
9893;BME280;4985;49.092;8.542;2023-10-31T04:30:12;97959.78;;;18.67;48.04
9893;BME280;4985;49.092;8.542;2023-10-31T04:32:37;97958.97;;;18.66;47.95
9893;BME280;4985;49.092;8.542;2023-10-31T04:35:03;97966.97;;;18.66;47.96
9893;BME280;4985;49.092;8.542;2023-10-31T04:37:28;97964.31;;;18.66;48.09
9893;BME280;4985;49.092;8.542;2023-10-31T04:39:53;97962.69;;;18.65;48.40
9893;BME280;4985;49.092;8.542;2023-10-31T04:42:19;97952.84;;;18.66;47.92
9893;BME280;4985;49.092;8.542;2023-10-31T04:44:45;97960.84;;;18.66;48.02
9893;BME280;4985;49.092;8.542;2023-10-31T04:47:11;97959.78;;;18.67;48.34
9893;BME280;4985;49.092;8.542;2023-10-31T04:49:36;97967.78;;;18.67;48.57
9893;BME280;4985;49.092;8.542;2023-10-31T04:52:02;97971.50;;;18.66;48.27
9893;BME280;4985;49.092;8.542;2023-10-31T04:54:27;97973.13;;;18.67;48.00
9893;BME280;4985;49.092;8.542;2023-10-31T04:56:52;97974.97;;;18.66;47.94
9893;BME280;4985;49.092;8.542;2023-10-31T04:59:18;97975.22;;;18.65;47.90
9893;BME280;4985;49.092;8.542;2023-10-31T05:01:48;97977.09;;;18.64;47.62
9893;BME280;4985;49.092;8.542;2023-10-31T05:04:15;97972.56;;;18.65;47.62
9893;BME280;4985;49.092;8.542;2023-10-31T05:06:40;97975.22;;;18.65;47.55
9893;BME280;4985;49.092;8.542;2023-10-31T05:09:06;97980.56;;;18.65;47.49
9893;BME280;4985;49.092;8.542;2023-10-31T05:11:31;97981.59;;;18.63;47.67
9893;BME280;4985;49.092;8.542;2023-10-31T05:13:56;97978.91;;;18.63;47.54
9893;BME280;4985;49.092;8.542;2023-10-31T05:16:22;97978.91;;;18.63;47.72
9893;BME280;4985;49.092;8.542;2023-10-31T05:18:47;97976.25;;;18.63;47.64
9893;BME280;4985;49.092;8.542;2023-10-31T05:21:12;97986.91;;;18.63;47.54
9893;BME280;4985;49.092;8.542;2023-10-31T05:23:38;97986.91;;;18.63;47.70
9893;BME280;4985;49.092;8.542;2023-10-31T05:26:05;97992.25;;;18.63;47.81
9893;BME280;4985;49.092;8.542;2023-10-31T05:28:30;97994.09;;;18.63;47.83
9893;BME280;4985;49.092;8.542;2023-10-31T05:30:56;97993.06;;;18.64;47.96
9893;BME280;4985;49.092;8.542;2023-10-31T05:33:21;98005.56;;;18.63;47.55
9893;BME280;4985;49.092;8.542;2023-10-31T05:35:48;98000.25;;;18.63;47.85
9893;BME280;4985;49.092;8.542;2023-10-31T05:38:13;97998.41;;;18.64;47.45
9893;BME280;4985;49.092;8.542;2023-10-31T05:40:39;98005.56;;;18.63;47.72
9893;BME280;4985;49.092;8.542;2023-10-31T05:43:04;98002.09;;;18.63;47.88
9893;BME280;4985;49.092;8.542;2023-10-31T05:45:30;97995.97;;;18.62;47.87
9893;BME280;4985;49.092;8.542;2023-10-31T05:47:56;97999.44;;;18.63;47.89
9893;BME280;4985;49.092;8.542;2023-10-31T05:50:21;97994.69;;;18.65;48.03
9893;BME280;4985;49.092;8.542;2023-10-31T05:52:46;98010.69;;;18.65;47.99
9893;BME280;4985;49.092;8.542;2023-10-31T05:55:12;98007.75;;;18.67;48.42
9893;BME280;4985;49.092;8.542;2023-10-31T05:57:38;98015.22;;;18.65;48.42
9893;BME280;4985;49.092;8.542;2023-10-31T06:00:04;98013.34;;;18.65;48.08
9893;BME280;4985;49.092;8.542;2023-10-31T06:02:29;98008.81;;;18.66;48.04
9893;BME280;4985;49.092;8.542;2023-10-31T06:04:55;98032.81;;;18.66;47.85
9893;BME280;4985;49.092;8.542;2023-10-31T06:07:20;98031.19;;;18.65;47.41
9893;BME280;4985;49.092;8.542;2023-10-31T06:09:45;98028.53;;;18.65;47.70
9893;BME280;4985;49.092;8.542;2023-10-31T06:12:11;98041.28;;;18.62;47.45
9893;BME280;4985;49.092;8.542;2023-10-31T06:14:37;98030.59;;;18.62;47.26
9893;BME280;4985;49.092;8.542;2023-10-31T06:17:02;98035.94;;;18.62;47.53
9893;BME280;4985;49.092;8.542;2023-10-31T06:19:28;98039.66;;;18.61;47.01
9893;BME280;4985;49.092;8.542;2023-10-31T06:21:53;98052.19;;;18.61;47.14
9893;BME280;4985;49.092;8.542;2023-10-31T06:24:18;98046.84;;;18.61;47.42
9893;BME280;4985;49.092;8.542;2023-10-31T06:26:44;98051.38;;;18.60;47.69
9893;BME280;4985;49.092;8.542;2023-10-31T06:29:09;98051.38;;;18.60;47.48
9893;BME280;4985;49.092;8.542;2023-10-31T06:31:34;98062.84;;;18.61;47.25
9893;BME280;4985;49.092;8.542;2023-10-31T06:33:59;98060.97;;;18.61;47.82
9893;BME280;4985;49.092;8.542;2023-10-31T06:36:25;98062.03;;;18.60;47.60
9893;BME280;4985;49.092;8.542;2023-10-31T06:38:50;98063.66;;;18.61;47.68
9893;BME280;4985;49.092;8.542;2023-10-31T06:41:15;98072.69;;;18.60;48.02
9893;BME280;4985;49.092;8.542;2023-10-31T06:43:41;98068.16;;;18.61;47.99
9893;BME280;4985;49.092;8.542;2023-10-31T06:46:06;98075.09;;;18.62;48.24
9893;BME280;4985;49.092;8.542;2023-10-31T06:48:32;98082.31;;;18.61;48.23
9893;BME280;4985;49.092;8.542;2023-10-31T06:50:57;98079.63;;;18.61;48.44
9893;BME280;4985;49.092;8.542;2023-10-31T06:53:23;98088.44;;;18.62;48.27
9893;BME280;4985;49.092;8.542;2023-10-31T06:55:48;98093.78;;;18.62;48.17
9893;BME280;4985;49.092;8.542;2023-10-31T06:58:13;98090.28;;;18.61;48.23
9893;BME280;4985;49.092;8.542;2023-10-31T07:00:39;98099.34;;;18.60;48.17
9893;BME280;4985;49.092;8.542;2023-10-31T07:03:04;98099.34;;;18.60;48.08
9893;BME280;4985;49.092;8.542;2023-10-31T07:05:36;98100.41;;;18.59;48.09
9893;BME280;4985;49.092;8.542;2023-10-31T07:08:02;98104.94;;;18.59;47.97
9893;BME280;4985;49.092;8.542;2023-10-31T07:10:28;98109.44;;;18.58;48.03
9893;BME280;4985;49.092;8.542;2023-10-31T07:12:53;98121.16;;;18.57;48.07
9893;BME280;4985;49.092;8.542;2023-10-31T07:15:19;98127.50;;;18.56;48.25
9893;BME280;4985;49.092;8.542;2023-10-31T07:17:44;98130.19;;;18.56;48.50
9893;BME280;4985;49.092;8.542;2023-10-31T07:20:10;98119.53;;;18.56;48.18
9893;BME280;4985;49.092;8.542;2023-10-31T07:22:35;98131.81;;;18.57;48.04
9893;BME280;4985;49.092;8.542;2023-10-31T07:25:01;98130.19;;;18.56;48.30
9893;BME280;4985;49.092;8.542;2023-10-31T07:27:29;98130.19;;;18.56;48.38
9893;BME280;4985;49.092;8.542;2023-10-31T07:29:54;98132.03;;;18.56;48.16
9893;BME280;4985;49.092;8.542;2023-10-31T07:32:19;98134.69;;;18.56;48.34
9893;BME280;4985;49.092;8.542;2023-10-31T07:34:45;98135.75;;;18.55;48.17
9893;BME280;4985;49.092;8.542;2023-10-31T07:37:10;98135.75;;;18.55;48.39
9893;BME280;4985;49.092;8.542;2023-10-31T07:39:35;98134.13;;;18.54;47.89
9893;BME280;4985;49.092;8.542;2023-10-31T07:42:01;98141.31;;;18.53;48.33
9893;BME280;4985;49.092;8.542;2023-10-31T07:44:26;98141.31;;;18.53;48.41
9893;BME280;4985;49.092;8.542;2023-10-31T07:46:51;98142.94;;;18.54;48.06
9893;BME280;4985;49.092;8.542;2023-10-31T07:49:17;98142.94;;;18.54;48.58
9893;BME280;4985;49.092;8.542;2023-10-31T07:51:42;98147.22;;;18.55;48.51
9893;BME280;4985;49.092;8.542;2023-10-31T07:54:07;98154.16;;;18.56;48.78
9893;BME280;4985;49.092;8.542;2023-10-31T07:56:34;98148.84;;;18.56;49.00
9893;BME280;4985;49.092;8.542;2023-10-31T07:59:01;98158.47;;;18.57;48.85
9893;BME280;4985;49.092;8.542;2023-10-31T08:01:26;98156.63;;;18.58;48.69
9893;BME280;4985;49.092;8.542;2023-10-31T08:03:53;98160.88;;;18.59;48.55
9893;BME280;4985;49.092;8.542;2023-10-31T08:06:19;98167.84;;;18.60;48.79
9893;BME280;4985;49.092;8.542;2023-10-31T08:08:44;98170.75;;;18.58;48.41
9893;BME280;4985;49.092;8.542;2023-10-31T08:11:10;98176.06;;;18.58;48.35
9893;BME280;4985;49.092;8.542;2023-10-31T08:13:36;98178.75;;;18.58;48.00
9893;BME280;4985;49.092;8.542;2023-10-31T08:16:03;98182.47;;;18.57;48.24
9893;BME280;4985;49.092;8.542;2023-10-31T08:18:29;98190.44;;;18.57;48.01
9893;BME280;4985;49.092;8.542;2023-10-31T08:20:54;98190.44;;;18.57;47.89
9893;BME280;4985;49.092;8.542;2023-10-31T08:23:19;98189.63;;;18.57;47.68
9893;BME280;4985;49.092;8.542;2023-10-31T08:25:45;98193.34;;;18.56;47.60
9893;BME280;4985;49.092;8.542;2023-10-31T08:28:11;98209.31;;;18.56;47.49
9893;BME280;4985;49.092;8.542;2023-10-31T08:30:37;98213.84;;;18.55;47.35
9893;BME280;4985;49.092;8.542;2023-10-31T08:33:03;98209.56;;;18.54;47.28
9893;BME280;4985;49.092;8.542;2023-10-31T08:35:29;98213.84;;;18.55;47.37
9893;BME280;4985;49.092;8.542;2023-10-31T08:37:55;98213.03;;;18.55;47.56
9893;BME280;4985;49.092;8.542;2023-10-31T08:40:20;98221.84;;;18.55;47.76
9893;BME280;4985;49.092;8.542;2023-10-31T08:42:45;98211.97;;;18.56;47.69
9893;BME280;4985;49.092;8.542;2023-10-31T08:45:11;98221.59;;;18.57;47.87
9893;BME280;4985;49.092;8.542;2023-10-31T08:47:36;98229.38;;;18.58;48.42
9893;BME280;4985;49.092;8.542;2023-10-31T08:50:01;98236.31;;;18.59;48.78
9893;BME280;4985;49.092;8.542;2023-10-31T08:52:27;98235.28;;;18.60;48.72
9893;BME280;4985;49.092;8.542;2023-10-31T08:54:52;98237.13;;;18.60;48.65
9893;BME280;4985;49.092;8.542;2023-10-31T08:57:18;98238.75;;;18.61;48.65
9893;BME280;4985;49.092;8.542;2023-10-31T08:59:43;98240.59;;;18.60;48.26
9893;BME280;4985;49.092;8.542;2023-10-31T09:02:08;98240.03;;;18.58;48.26
9893;BME280;4985;49.092;8.542;2023-10-31T09:04:34;98238.44;;;18.57;48.69
9893;BME280;4985;49.092;8.542;2023-10-31T09:07:00;98240.03;;;18.58;48.59
9893;BME280;4985;49.092;8.542;2023-10-31T09:09:25;98246.16;;;18.59;48.83
9893;BME280;4985;49.092;8.542;2023-10-31T09:11:50;98245.38;;;18.58;48.64
9893;BME280;4985;49.092;8.542;2023-10-31T09:14:16;98243.75;;;18.57;48.51
9893;BME280;4985;49.092;8.542;2023-10-31T09:16:41;98234.13;;;18.56;48.80
9893;BME280;4985;49.092;8.542;2023-10-31T09:19:06;98231.22;;;18.58;48.86
9893;BME280;4985;49.092;8.542;2023-10-31T09:21:31;98230.44;;;18.57;49.13
9893;BME280;4985;49.092;8.542;2023-10-31T09:23:57;98226.13;;;18.56;48.81
9893;BME280;4985;49.092;8.542;2023-10-31T09:26:22;98227.97;;;18.56;48.32
9893;BME280;4985;49.092;8.542;2023-10-31T09:28:47;98229.84;;;18.55;48.07
9893;BME280;4985;49.092;8.542;2023-10-31T09:31:16;98230.06;;;18.54;48.26
9893;BME280;4985;49.092;8.542;2023-10-31T09:33:43;98233.78;;;18.53;48.30
9893;BME280;4985;49.092;8.542;2023-10-31T09:36:08;98234.03;;;18.51;48.16
9893;BME280;4985;49.092;8.542;2023-10-31T09:38:33;98234.03;;;18.51;48.10
9893;BME280;4985;49.092;8.542;2023-10-31T09:40:59;98237.75;;;18.50;47.85
9893;BME280;4985;49.092;8.542;2023-10-31T09:43:24;98240.41;;;18.50;47.88
9893;BME280;4985;49.092;8.542;2023-10-31T09:45:50;98244.69;;;18.51;47.90
9893;BME280;4985;49.092;8.542;2023-10-31T09:48:16;98246.56;;;18.51;48.15
9893;BME280;4985;49.092;8.542;2023-10-31T09:50:43;98238.56;;;18.51;47.82
9893;BME280;4985;49.092;8.542;2023-10-31T09:53:10;98250.84;;;18.52;48.13
9893;BME280;4985;49.092;8.542;2023-10-31T09:55:36;98239.38;;;18.51;48.13
9893;BME280;4985;49.092;8.542;2023-10-31T09:58:01;98252.44;;;18.53;48.57
9893;BME280;4985;49.092;8.542;2023-10-31T10:00:28;98247.13;;;18.53;48.45
9893;BME280;4985;49.092;8.542;2023-10-31T10:02:54;98241.53;;;18.54;48.35
9893;BME280;4985;49.092;8.542;2023-10-31T10:05:20;98240.50;;;18.55;48.39
9893;BME280;4985;49.092;8.542;2023-10-31T10:07:48;98235.16;;;18.55;48.29
9893;BME280;4985;49.092;8.542;2023-10-31T10:10:13;98234.34;;;18.55;48.23
9893;BME280;4985;49.092;8.542;2023-10-31T10:12:44;98220.22;;;18.54;48.59
9893;BME280;4985;49.092;8.542;2023-10-31T10:15:10;98233.56;;;18.54;48.41
9893;BME280;4985;49.092;8.542;2023-10-31T10:17:36;98229.03;;;18.55;48.46
9893;BME280;4985;49.092;8.542;2023-10-31T10:20:08;98243.16;;;18.55;48.70
9893;BME280;4985;49.092;8.542;2023-10-31T10:22:38;98238.88;;;18.54;48.64
9893;BME280;4985;49.092;8.542;2023-10-31T10:25:06;98228.22;;;18.54;48.72
9893;BME280;4985;49.092;8.542;2023-10-31T10:27:32;98227.97;;;18.56;48.43
9893;BME280;4985;49.092;8.542;2023-10-31T10:29:57;98235.97;;;18.56;48.35
9893;BME280;4985;49.092;8.542;2023-10-31T10:32:23;98241.31;;;18.56;48.24
9893;BME280;4985;49.092;8.542;2023-10-31T10:34:48;98242.09;;;18.56;48.85
9893;BME280;4985;49.092;8.542;2023-10-31T10:37:13;98248.25;;;18.57;48.68
9893;BME280;4985;49.092;8.542;2023-10-31T10:39:39;98238.44;;;18.57;48.43
9893;BME280;4985;49.092;8.542;2023-10-31T10:42:09;98240.03;;;18.58;48.72
9893;BME280;4985;49.092;8.542;2023-10-31T10:44:36;98240.03;;;18.58;48.69
9893;BME280;4985;49.092;8.542;2023-10-31T10:47:05;98237.13;;;18.60;48.88
9893;BME280;4985;49.092;8.542;2023-10-31T10:49:35;98238.75;;;18.61;48.85
9893;BME280;4985;49.092;8.542;2023-10-31T10:52:14;98237.94;;;18.60;48.62
9893;BME280;4985;49.092;8.542;2023-10-31T10:54:52;98234.72;;;18.58;48.50
9893;BME280;4985;49.092;8.542;2023-10-31T10:57:46;98236.31;;;18.59;48.99
9893;BME280;4985;49.092;8.542;2023-10-31T11:00:13;98248.03;;;18.58;48.44
9893;BME280;4985;49.092;8.542;2023-10-31T11:02:40;98238.44;;;18.57;48.38
9893;BME280;4985;49.092;8.542;2023-10-31T11:05:09;98238.44;;;18.57;48.65
9893;BME280;4985;49.092;8.542;2023-10-31T11:07:36;98253.38;;;18.58;48.71
9893;BME280;4985;49.092;8.542;2023-10-31T11:10:02;98249.66;;;18.59;48.67
9893;BME280;4985;49.092;8.542;2023-10-31T11:12:31;98259.81;;;18.62;49.07
9893;BME280;4985;49.092;8.542;2023-10-31T11:14:58;98257.16;;;18.62;49.10
9893;BME280;4985;49.092;8.542;2023-10-31T11:17:28;98254.28;;;18.64;49.05
9893;BME280;4985;49.092;8.542;2023-10-31T11:19:54;98260.16;;;18.66;48.73
9893;BME280;4985;49.092;8.542;2023-10-31T11:22:20;98263.88;;;18.65;48.99
9893;BME280;4985;49.092;8.542;2023-10-31T11:24:48;98267.34;;;18.66;48.80
9893;BME280;4985;49.092;8.542;2023-10-31T11:27:14;98253.22;;;18.65;48.72
9893;BME280;4985;49.092;8.542;2023-10-31T11:29:39;98268.97;;;18.67;48.92
9893;BME280;4985;49.092;8.542;2023-10-31T11:32:08;98268.16;;;18.66;48.72
9893;BME280;4985;49.092;8.542;2023-10-31T11:34:37;98263.63;;;18.67;49.07
9893;BME280;4985;49.092;8.542;2023-10-31T11:37:18;98258.66;;;18.70;48.92
9893;BME280;4985;49.092;8.542;2023-10-31T11:42:40;98273.50;;;18.66;49.50
9893;BME280;4985;49.092;8.542;2023-10-31T11:45:08;98272.44;;;18.67;49.46
9893;BME280;4985;49.092;8.542;2023-10-31T11:47:50;98275.72;;;18.69;49.84
9893;BME280;4985;49.092;8.542;2023-10-31T11:50:16;98269.53;;;18.69;50.09
9893;BME280;4985;49.092;8.542;2023-10-31T11:52:42;98279.97;;;18.70;50.01
9893;BME280;4985;49.092;8.542;2023-10-31T11:55:11;98281.59;;;18.71;50.17
9893;BME280;4985;49.092;8.542;2023-10-31T11:57:37;98289.34;;;18.73;49.88
9893;BME280;4985;49.092;8.542;2023-10-31T12:00:04;98290.97;;;18.74;50.12
9893;BME280;4985;49.092;8.542;2023-10-31T12:02:30;98290.16;;;18.73;49.78
9893;BME280;4985;49.092;8.542;2023-10-31T12:05:11;98292.59;;;18.75;49.63
9893;BME280;4985;49.092;8.542;2023-10-31T12:07:46;98305.34;;;18.73;49.77
9893;BME280;4985;49.092;8.542;2023-10-31T12:10:12;98300.25;;;18.71;49.47
9893;BME280;4985;49.092;8.542;2023-10-31T12:12:38;98300.03;;;18.73;49.58
9893;BME280;4985;49.092;8.542;2023-10-31T12:15:08;98305.34;;;18.73;49.53
9893;BME280;4985;49.092;8.542;2023-10-31T12:17:36;98304.53;;;18.72;49.15
9893;BME280;4985;49.092;8.542;2023-10-31T12:20:06;98310.69;;;18.73;49.62
9893;BME280;4985;49.092;8.542;2023-10-31T12:22:32;98308.81;;;18.73;49.34
9893;BME280;4985;49.092;8.542;2023-10-31T12:25:08;98307.78;;;18.74;49.92
9893;BME280;4985;49.092;8.542;2023-10-31T12:27:50;98311.25;;;18.75;49.58
9893;BME280;4985;49.092;8.542;2023-10-31T12:30:17;98312.28;;;18.74;49.77
9893;BME280;4985;49.092;8.542;2023-10-31T12:32:43;98318.44;;;18.74;49.87
9893;BME280;4985;49.092;8.542;2023-10-31T12:35:15;98319.00;;;18.76;49.81
9893;BME280;4985;49.092;8.542;2023-10-31T12:37:46;98312.84;;;18.76;49.83
9893;BME280;4985;49.092;8.542;2023-10-31T12:40:22;98314.47;;;18.77;49.81
9893;BME280;4985;49.092;8.542;2023-10-31T12:42:49;98312.84;;;18.76;49.49
9893;BME280;4985;49.092;8.542;2023-10-31T12:45:15;98311.00;;;18.76;49.85
9893;BME280;4985;49.092;8.542;2023-10-31T12:47:42;98315.53;;;18.76;50.01
9893;BME280;4985;49.092;8.542;2023-10-31T12:52:49;98323.03;;;18.79;50.00
9893;BME280;4985;49.092;8.542;2023-10-31T12:55:17;98318.75;;;18.78;50.43
9893;BME280;4985;49.092;8.542;2023-10-31T12:57:43;98319.56;;;18.78;50.25
9893;BME280;4985;49.092;8.542;2023-10-31T13:00:10;98319.56;;;18.78;50.33
9893;BME280;4985;49.092;8.542;2023-10-31T13:02:38;98312.63;;;18.77;50.26
9893;BME280;4985;49.092;8.542;2023-10-31T13:05:16;98325.94;;;18.77;49.82
9893;BME280;4985;49.092;8.542;2023-10-31T13:07:52;98325.13;;;18.77;50.04
9893;BME280;4985;49.092;8.542;2023-10-31T13:10:19;98316.56;;;18.75;49.63
9893;BME280;4985;49.092;8.542;2023-10-31T13:12:49;98325.38;;;18.75;49.79
9893;BME280;4985;49.092;8.542;2023-10-31T13:15:18;98314.72;;;18.75;50.07
9893;BME280;4985;49.092;8.542;2023-10-31T13:17:44;98330.72;;;18.75;49.83
9893;BME280;4985;49.092;8.542;2023-10-31T13:20:11;98329.91;;;18.75;50.04
9893;BME280;4985;49.092;8.542;2023-10-31T13:22:40;98338.47;;;18.77;50.11